sensor_id;sensor_type;location;lat;lon;timestamp;temperature;humidity
37754;DHT22;23596;52.520;13.464;2022-09-01T00:01:15;18.50;99.90
37754;DHT22;23596;52.520;13.464;2022-09-01T00:03:49;17.70;99.90
37754;DHT22;23596;52.520;13.464;2022-09-01T00:06:18;17.70;99.90
37754;DHT22;23596;52.520;13.464;2022-09-01T00:08:55;17.70;99.90
37754;DHT22;23596;52.520;13.464;2022-09-01T00:11:22;17.60;99.90
37754;DHT22;23596;52.520;13.464;2022-09-01T00:13:49;17.70;99.90
37754;DHT22;23596;52.520;13.464;2022-09-01T00:16:15;17.10;99.90
37754;DHT22;23596;52.520;13.464;2022-09-01T00:18:48;17.60;99.90
37754;DHT22;23596;52.520;13.464;2022-09-01T00:21:15;17.60;99.90
37754;DHT22;23596;52.520;13.464;2022-09-01T00:23:41;17.60;99.90
37754;DHT22;23596;52.520;13.464;2022-09-01T00:26:07;17.60;99.90
37754;DHT22;23596;52.520;13.464;2022-09-01T00:28:33;18.40;99.90
37754;DHT22;23596;52.520;13.464;2022-09-01T00:30:59;17.60;99.90
37754;DHT22;23596;52.520;13.464;2022-09-01T00:33:25;17.60;99.90
37754;DHT22;23596;52.520;13.464;2022-09-01T00:35:51;17.60;99.90
37754;DHT22;23596;52.520;13.464;2022-09-01T00:38:16;17.50;99.90
37754;DHT22;23596;52.520;13.464;2022-09-01T00:40:42;17.50;99.90
37754;DHT22;23596;52.520;13.464;2022-09-01T00:43:20;17.50;99.90
37754;DHT22;23596;52.520;13.464;2022-09-01T00:45:46;17.50;99.90
37754;DHT22;23596;52.520;13.464;2022-09-01T00:48:11;17.80;99.90
37754;DHT22;23596;52.520;13.464;2022-09-01T00:50:39;17.50;99.90
37754;DHT22;23596;52.520;13.464;2022-09-01T00:53:06;17.50;99.90
37754;DHT22;23596;52.520;13.464;2022-09-01T00:55:34;17.50;99.90
37754;DHT22;23596;52.520;13.464;2022-09-01T00:58:02;17.40;99.90
37754;DHT22;23596;52.520;13.464;2022-09-01T01:00:32;17.50;99.90
37754;DHT22;23596;52.520;13.464;2022-09-01T01:02:58;17.40;99.90
37754;DHT22;23596;52.520;13.464;2022-09-01T01:05:32;17.40;99.90
37754;DHT22;23596;52.520;13.464;2022-09-01T01:07:59;18.40;99.90
37754;DHT22;23596;52.520;13.464;2022-09-01T01:10:30;18.00;99.90
37754;DHT22;23596;52.520;13.464;2022-09-01T01:12:57;17.30;99.90
37754;DHT22;23596;52.520;13.464;2022-09-01T01:15:27;17.30;99.90
37754;DHT22;23596;52.520;13.464;2022-09-01T01:17:54;17.30;99.90
37754;DHT22;23596;52.520;13.464;2022-09-01T01:20:24;17.30;99.90
37754;DHT22;23596;52.520;13.464;2022-09-01T01:23:39;17.30;99.90
37754;DHT22;23596;52.520;13.464;2022-09-01T01:26:06;17.30;99.90
37754;DHT22;23596;52.520;13.464;2022-09-01T01:28:36;17.20;99.90
37754;DHT22;23596;52.520;13.464;2022-09-01T01:31:09;17.20;99.90
37754;DHT22;23596;52.520;13.464;2022-09-01T01:33:47;17.20;99.90
37754;DHT22;23596;52.520;13.464;2022-09-01T01:36:14;17.20;99.90
37754;DHT22;23596;52.520;13.464;2022-09-01T01:38:43;17.10;99.90
37754;DHT22;23596;52.520;13.464;2022-09-01T01:41:10;17.10;99.90
37754;DHT22;23596;52.520;13.464;2022-09-01T01:43:36;17.10;99.90
37754;DHT22;23596;52.520;13.464;2022-09-01T01:46:04;17.10;99.90
37754;DHT22;23596;52.520;13.464;2022-09-01T01:48:33;17.10;99.90
37754;DHT22;23596;52.520;13.464;2022-09-01T01:51:02;17.10;99.90
37754;DHT22;23596;52.520;13.464;2022-09-01T01:53:30;17.10;99.90
37754;DHT22;23596;52.520;13.464;2022-09-01T01:55:56;17.00;99.90
37754;DHT22;23596;52.520;13.464;2022-09-01T01:58:23;17.00;99.90
37754;DHT22;23596;52.520;13.464;2022-09-01T02:00:51;17.00;99.90
37754;DHT22;23596;52.520;13.464;2022-09-01T02:03:20;17.00;99.90
37754;DHT22;23596;52.520;13.464;2022-09-01T02:05:48;16.90;99.90
37754;DHT22;23596;52.520;13.464;2022-09-01T02:08:15;16.90;99.90
37754;DHT22;23596;52.520;13.464;2022-09-01T02:10:47;16.90;99.90
37754;DHT22;23596;52.520;13.464;2022-09-01T02:13:16;16.90;99.90
37754;DHT22;23596;52.520;13.464;2022-09-01T02:15:53;16.90;99.90
37754;DHT22;23596;52.520;13.464;2022-09-01T02:18:26;16.90;99.90
37754;DHT22;23596;52.520;13.464;2022-09-01T02:20:53;16.90;99.90
37754;DHT22;23596;52.520;13.464;2022-09-01T02:23:21;16.80;99.90
37754;DHT22;23596;52.520;13.464;2022-09-01T02:25:56;16.80;99.90
37754;DHT22;23596;52.520;13.464;2022-09-01T02:28:25;17.00;99.90
37754;DHT22;23596;52.520;13.464;2022-09-01T02:30:53;16.70;99.90
37754;DHT22;23596;52.520;13.464;2022-09-01T02:33:22;17.00;99.90
37754;DHT22;23596;52.520;13.464;2022-09-01T02:35:51;17.00;99.90
37754;DHT22;23596;52.520;13.464;2022-09-01T02:38:17;18.40;99.90
37754;DHT22;23596;52.520;13.464;2022-09-01T02:40:46;16.70;99.90
37754;DHT22;23596;52.520;13.464;2022-09-01T02:43:14;16.60;99.90
37754;DHT22;23596;52.520;13.464;2022-09-01T02:45:49;16.70;99.90
37754;DHT22;23596;52.520;13.464;2022-09-01T02:48:30;16.60;99.90
37754;DHT22;23596;52.520;13.464;2022-09-01T02:51:04;16.60;99.90
37754;DHT22;23596;52.520;13.464;2022-09-01T02:53:31;16.60;99.90
37754;DHT22;23596;52.520;13.464;2022-09-01T02:56:00;16.50;99.90
37754;DHT22;23596;52.520;13.464;2022-09-01T02:58:28;16.40;99.90
37754;DHT22;23596;52.520;13.464;2022-09-01T03:00:57;16.90;99.90
37754;DHT22;23596;52.520;13.464;2022-09-01T03:03:24;16.30;99.90
37754;DHT22;23596;52.520;13.464;2022-09-01T03:05:51;16.30;99.90
37754;DHT22;23596;52.520;13.464;2022-09-01T03:08:22;16.20;99.90
37754;DHT22;23596;52.520;13.464;2022-09-01T03:10:49;16.10;99.90
37754;DHT22;23596;52.520;13.464;2022-09-01T03:13:18;16.10;99.90
37754;DHT22;23596;52.520;13.464;2022-09-01T03:15:45;16.00;99.90
37754;DHT22;23596;52.520;13.464;2022-09-01T03:18:12;16.00;99.90
37754;DHT22;23596;52.520;13.464;2022-09-01T03:20:40;15.90;99.90
37754;DHT22;23596;52.520;13.464;2022-09-01T03:23:09;15.80;99.90
37754;DHT22;23596;52.520;13.464;2022-09-01T03:25:35;15.80;99.90
37754;DHT22;23596;52.520;13.464;2022-09-01T03:28:01;15.80;99.90
37754;DHT22;23596;52.520;13.464;2022-09-01T03:30:33;15.70;99.90
37754;DHT22;23596;52.520;13.464;2022-09-01T03:33:00;15.70;99.90
37754;DHT22;23596;52.520;13.464;2022-09-01T03:35:27;15.60;99.90
37754;DHT22;23596;52.520;13.464;2022-09-01T03:37:54;15.60;99.90
37754;DHT22;23596;52.520;13.464;2022-09-01T03:40:20;15.60;99.90
37754;DHT22;23596;52.520;13.464;2022-09-01T03:42:46;15.50;99.90
37754;DHT22;23596;52.520;13.464;2022-09-01T03:45:12;15.50;99.90
37754;DHT22;23596;52.520;13.464;2022-09-01T03:47:43;16.30;99.90
37754;DHT22;23596;52.520;13.464;2022-09-01T03:50:12;15.50;99.90
37754;DHT22;23596;52.520;13.464;2022-09-01T03:52:52;15.50;99.90
37754;DHT22;23596;52.520;13.464;2022-09-01T03:55:26;15.50;99.90
37754;DHT22;23596;52.520;13.464;2022-09-01T03:57:53;15.40;99.90
37754;DHT22;23596;52.520;13.464;2022-09-01T04:00:22;15.40;99.90
37754;DHT22;23596;52.520;13.464;2022-09-01T04:02:53;15.40;99.90
37754;DHT22;23596;52.520;13.464;2022-09-01T04:05:25;15.40;99.90
37754;DHT22;23596;52.520;13.464;2022-09-01T04:07:54;15.30;99.90
37754;DHT22;23596;52.520;13.464;2022-09-01T04:10:20;15.40;99.90
37754;DHT22;23596;52.520;13.464;2022-09-01T04:12:47;15.30;99.90
37754;DHT22;23596;52.520;13.464;2022-09-01T04:15:14;15.30;99.90
37754;DHT22;23596;52.520;13.464;2022-09-01T04:17:42;15.20;99.90
37754;DHT22;23596;52.520;13.464;2022-09-01T04:20:26;15.10;99.90
37754;DHT22;23596;52.520;13.464;2022-09-01T04:22:52;15.00;99.90
37754;DHT22;23596;52.520;13.464;2022-09-01T04:25:18;15.00;99.90
37754;DHT22;23596;52.520;13.464;2022-09-01T04:27:49;15.10;99.90
37754;DHT22;23596;52.520;13.464;2022-09-01T04:30:14;14.90;99.90
37754;DHT22;23596;52.520;13.464;2022-09-01T04:32:41;14.90;99.90
37754;DHT22;23596;52.520;13.464;2022-09-01T04:35:08;14.90;99.90
37754;DHT22;23596;52.520;13.464;2022-09-01T04:37:41;14.90;99.90
37754;DHT22;23596;52.520;13.464;2022-09-01T04:40:08;15.00;99.90
37754;DHT22;23596;52.520;13.464;2022-09-01T04:42:34;14.90;99.90
37754;DHT22;23596;52.520;13.464;2022-09-01T04:45:00;14.90;99.90
37754;DHT22;23596;52.520;13.464;2022-09-01T04:47:26;14.90;99.90
37754;DHT22;23596;52.520;13.464;2022-09-01T04:49:58;14.90;99.90
37754;DHT22;23596;52.520;13.464;2022-09-01T04:52:25;14.80;99.90
37754;DHT22;23596;52.520;13.464;2022-09-01T04:54:51;17.30;99.90
37754;DHT22;23596;52.520;13.464;2022-09-01T04:57:17;14.90;99.90
37754;DHT22;23596;52.520;13.464;2022-09-01T04:59:42;14.80;99.90
37754;DHT22;23596;52.520;13.464;2022-09-01T05:02:09;14.80;99.90
37754;DHT22;23596;52.520;13.464;2022-09-01T05:04:35;14.80;99.90
37754;DHT22;23596;52.520;13.464;2022-09-01T05:07:03;14.80;99.90
37754;DHT22;23596;52.520;13.464;2022-09-01T05:09:32;14.80;99.90
37754;DHT22;23596;52.520;13.464;2022-09-01T05:12:03;14.70;99.90
37754;DHT22;23596;52.520;13.464;2022-09-01T05:14:40;14.80;99.90
37754;DHT22;23596;52.520;13.464;2022-09-01T05:17:07;14.80;99.90
37754;DHT22;23596;52.520;13.464;2022-09-01T05:19:36;14.70;99.90
37754;DHT22;23596;52.520;13.464;2022-09-01T05:22:02;14.80;99.90
37754;DHT22;23596;52.520;13.464;2022-09-01T05:24:29;14.80;99.90
37754;DHT22;23596;52.520;13.464;2022-09-01T05:26:57;14.80;99.90
37754;DHT22;23596;52.520;13.464;2022-09-01T05:29:25;14.80;99.90
37754;DHT22;23596;52.520;13.464;2022-09-01T05:31:53;14.80;99.90
37754;DHT22;23596;52.520;13.464;2022-09-01T05:34:20;14.80;99.90
37754;DHT22;23596;52.520;13.464;2022-09-01T05:36:52;14.90;99.90
37754;DHT22;23596;52.520;13.464;2022-09-01T05:39:18;14.90;99.90
37754;DHT22;23596;52.520;13.464;2022-09-01T05:41:45;14.90;99.90
37754;DHT22;23596;52.520;13.464;2022-09-01T05:44:13;14.90;99.90
37754;DHT22;23596;52.520;13.464;2022-09-01T05:46:40;14.90;99.90
37754;DHT22;23596;52.520;13.464;2022-09-01T05:49:08;15.20;99.90
37754;DHT22;23596;52.520;13.464;2022-09-01T05:51:48;14.90;99.90
37754;DHT22;23596;52.520;13.464;2022-09-01T05:54:18;15.00;99.90
37754;DHT22;23596;52.520;13.464;2022-09-01T05:56:45;14.90;99.90
37754;DHT22;23596;52.520;13.464;2022-09-01T05:59:13;14.90;99.90
37754;DHT22;23596;52.520;13.464;2022-09-01T06:01:39;14.90;99.90
37754;DHT22;23596;52.520;13.464;2022-09-01T06:04:07;15.00;99.90
37754;DHT22;23596;52.520;13.464;2022-09-01T06:06:38;15.70;99.90
37754;DHT22;23596;52.520;13.464;2022-09-01T06:09:06;15.10;99.90
37754;DHT22;23596;52.520;13.464;2022-09-01T06:11:32;15.10;99.90
37754;DHT22;23596;52.520;13.464;2022-09-01T06:13:59;15.10;99.90
37754;DHT22;23596;52.520;13.464;2022-09-01T06:16:26;15.20;99.90
37754;DHT22;23596;52.520;13.464;2022-09-01T06:18:53;15.20;99.90
37754;DHT22;23596;52.520;13.464;2022-09-01T06:21:20;15.20;99.90
37754;DHT22;23596;52.520;13.464;2022-09-01T06:23:50;15.20;99.90
37754;DHT22;23596;52.520;13.464;2022-09-01T06:26:19;15.30;99.90
37754;DHT22;23596;52.520;13.464;2022-09-01T06:28:45;15.30;99.90
37754;DHT22;23596;52.520;13.464;2022-09-01T06:31:12;15.70;99.90
37754;DHT22;23596;52.520;13.464;2022-09-01T06:33:38;15.40;99.90
37754;DHT22;23596;52.520;13.464;2022-09-01T06:36:04;15.40;99.90
37754;DHT22;23596;52.520;13.464;2022-09-01T06:38:30;15.40;99.90
37754;DHT22;23596;52.520;13.464;2022-09-01T06:41:04;15.50;99.90
37754;DHT22;23596;52.520;13.464;2022-09-01T06:43:35;15.50;99.90
37754;DHT22;23596;52.520;13.464;2022-09-01T06:46:01;15.50;99.90
37754;DHT22;23596;52.520;13.464;2022-09-01T06:48:27;15.50;99.90
37754;DHT22;23596;52.520;13.464;2022-09-01T06:50:59;15.60;99.90
37754;DHT22;23596;52.520;13.464;2022-09-01T06:53:26;15.60;99.90
37754;DHT22;23596;52.520;13.464;2022-09-01T06:55:52;15.80;99.90
37754;DHT22;23596;52.520;13.464;2022-09-01T06:58:17;15.70;99.90
37754;DHT22;23596;52.520;13.464;2022-09-01T07:00:44;15.70;99.90
37754;DHT22;23596;52.520;13.464;2022-09-01T07:03:11;15.70;99.90
37754;DHT22;23596;52.520;13.464;2022-09-01T07:05:43;15.80;99.90
37754;DHT22;23596;52.520;13.464;2022-09-01T07:08:12;15.80;99.90
37754;DHT22;23596;52.520;13.464;2022-09-01T07:10:44;15.90;99.90
37754;DHT22;23596;52.520;13.464;2022-09-01T07:13:15;15.90;99.90
37754;DHT22;23596;52.520;13.464;2022-09-01T07:15:44;16.00;99.90
37754;DHT22;23596;52.520;13.464;2022-09-01T07:18:13;16.00;99.90
37754;DHT22;23596;52.520;13.464;2022-09-01T07:20:40;16.30;99.90
37754;DHT22;23596;52.520;13.464;2022-09-01T07:23:07;16.00;99.90
37754;DHT22;23596;52.520;13.464;2022-09-01T07:25:36;16.40;99.90
37754;DHT22;23596;52.520;13.464;2022-09-01T07:28:04;16.10;99.90
37754;DHT22;23596;52.520;13.464;2022-09-01T07:30:30;16.40;99.90
37754;DHT22;23596;52.520;13.464;2022-09-01T07:32:57;16.70;99.90
37754;DHT22;23596;52.520;13.464;2022-09-01T07:35:23;16.20;99.90
37754;DHT22;23596;52.520;13.464;2022-09-01T07:37:49;16.30;99.90
37754;DHT22;23596;52.520;13.464;2022-09-01T07:40:18;16.30;99.90
37754;DHT22;23596;52.520;13.464;2022-09-01T07:42:46;16.30;99.90
37754;DHT22;23596;52.520;13.464;2022-09-01T07:45:13;16.40;99.90
37754;DHT22;23596;52.520;13.464;2022-09-01T07:47:39;16.40;99.90
37754;DHT22;23596;52.520;13.464;2022-09-01T07:50:07;16.40;99.90
37754;DHT22;23596;52.520;13.464;2022-09-01T07:52:34;16.60;99.90
37754;DHT22;23596;52.520;13.464;2022-09-01T07:55:05;16.60;99.90
37754;DHT22;23596;52.520;13.464;2022-09-01T07:57:32;16.60;99.90
37754;DHT22;23596;52.520;13.464;2022-09-01T07:59:58;17.10;99.90
37754;DHT22;23596;52.520;13.464;2022-09-01T08:02:24;16.70;99.90
37754;DHT22;23596;52.520;13.464;2022-09-01T08:04:52;16.80;99.90
37754;DHT22;23596;52.520;13.464;2022-09-01T08:07:18;16.80;99.90
37754;DHT22;23596;52.520;13.464;2022-09-01T08:09:44;16.80;99.90
37754;DHT22;23596;52.520;13.464;2022-09-01T08:12:10;16.80;99.90
37754;DHT22;23596;52.520;13.464;2022-09-01T08:14:36;16.90;99.90
37754;DHT22;23596;52.520;13.464;2022-09-01T08:17:02;16.90;99.90
37754;DHT22;23596;52.520;13.464;2022-09-01T08:19:28;17.00;99.90
37754;DHT22;23596;52.520;13.464;2022-09-01T08:21:55;17.00;99.90
37754;DHT22;23596;52.520;13.464;2022-09-01T08:24:21;17.30;99.90
37754;DHT22;23596;52.520;13.464;2022-09-01T08:26:46;17.00;99.90
37754;DHT22;23596;52.520;13.464;2022-09-01T08:29:12;17.10;99.90
37754;DHT22;23596;52.520;13.464;2022-09-01T08:31:37;17.20;99.90
37754;DHT22;23596;52.520;13.464;2022-09-01T08:34:03;17.20;99.90
37754;DHT22;23596;52.520;13.464;2022-09-01T08:36:30;17.20;99.90
37754;DHT22;23596;52.520;13.464;2022-09-01T08:38:56;17.20;99.90
37754;DHT22;23596;52.520;13.464;2022-09-01T08:44:28;17.40;99.90
37754;DHT22;23596;52.520;13.464;2022-09-01T08:47:01;17.40;99.90
37754;DHT22;23596;52.520;13.464;2022-09-01T08:49:28;17.40;99.90
37754;DHT22;23596;52.520;13.464;2022-09-01T08:52:13;17.50;99.90
37754;DHT22;23596;52.520;13.464;2022-09-01T08:54:47;17.60;99.90
37754;DHT22;23596;52.520;13.464;2022-09-01T08:57:20;17.60;99.90
37754;DHT22;23596;52.520;13.464;2022-09-01T08:59:48;17.60;99.90
37754;DHT22;23596;52.520;13.464;2022-09-01T09:02:36;17.70;99.90
37754;DHT22;23596;52.520;13.464;2022-09-01T09:10:53;17.90;99.90
37754;DHT22;23596;52.520;13.464;2022-09-01T09:19:08;18.10;99.90
37754;DHT22;23596;52.520;13.464;2022-09-01T09:21:41;18.20;99.90
37754;DHT22;23596;52.520;13.464;2022-09-01T09:24:30;18.20;99.90
37754;DHT22;23596;52.520;13.464;2022-09-01T09:27:33;18.30;99.90
37754;DHT22;23596;52.520;13.464;2022-09-01T09:30:07;18.30;99.90
37754;DHT22;23596;52.520;13.464;2022-09-01T09:32:54;18.40;99.90
37754;DHT22;23596;52.520;13.464;2022-09-01T09:35:34;18.40;99.90
37754;DHT22;23596;52.520;13.464;2022-09-01T09:40:59;18.50;99.90
37754;DHT22;23596;52.520;13.464;2022-09-01T09:43:26;18.60;99.90
37754;DHT22;23596;52.520;13.464;2022-09-01T09:46:24;18.70;99.90
37754;DHT22;23596;52.520;13.464;2022-09-01T09:49:12;18.90;99.90
37754;DHT22;23596;52.520;13.464;2022-09-01T09:51:42;19.00;99.90
37754;DHT22;23596;52.520;13.464;2022-09-01T09:59:37;19.30;99.90
37754;DHT22;23596;52.520;13.464;2022-09-01T10:02:37;19.40;99.90
37754;DHT22;23596;52.520;13.464;2022-09-01T10:07:55;19.60;99.90
37754;DHT22;23596;52.520;13.464;2022-09-01T10:12:52;19.60;99.90
37754;DHT22;23596;52.520;13.464;2022-09-01T10:15:21;19.50;99.90
37754;DHT22;23596;52.520;13.464;2022-09-01T10:17:48;19.50;99.90
37754;DHT22;23596;52.520;13.464;2022-09-01T10:20:22;19.50;99.90
37754;DHT22;23596;52.520;13.464;2022-09-01T10:22:50;19.40;99.90
37754;DHT22;23596;52.520;13.464;2022-09-01T10:25:22;19.50;99.90
37754;DHT22;23596;52.520;13.464;2022-09-01T10:28:10;19.50;99.90
37754;DHT22;23596;52.520;13.464;2022-09-01T10:30:41;19.50;99.90
37754;DHT22;23596;52.520;13.464;2022-09-01T10:33:08;19.50;99.90
37754;DHT22;23596;52.520;13.464;2022-09-01T10:35:39;19.60;99.90
37754;DHT22;23596;52.520;13.464;2022-09-01T10:38:18;19.70;99.90
37754;DHT22;23596;52.520;13.464;2022-09-01T10:40:50;19.70;99.90
37754;DHT22;23596;52.520;13.464;2022-09-01T10:43:45;19.60;99.90
37754;DHT22;23596;52.520;13.464;2022-09-01T10:48:51;19.70;99.90
37754;DHT22;23596;52.520;13.464;2022-09-01T10:53:47;19.80;99.90
37754;DHT22;23596;52.520;13.464;2022-09-01T10:59:23;19.90;99.90
37754;DHT22;23596;52.520;13.464;2022-09-01T11:07:02;20.00;99.90
37754;DHT22;23596;52.520;13.464;2022-09-01T11:09:37;20.00;99.80
37754;DHT22;23596;52.520;13.464;2022-09-01T11:12:43;20.10;99.90
37754;DHT22;23596;52.520;13.464;2022-09-01T11:20:35;20.30;99.70
37754;DHT22;23596;52.520;13.464;2022-09-01T11:23:11;20.40;99.50
37754;DHT22;23596;52.520;13.464;2022-09-01T11:25:44;20.50;99.30
37754;DHT22;23596;52.520;13.464;2022-09-01T11:44:43;21.00;97.30
37754;DHT22;23596;52.520;13.464;2022-09-01T11:47:23;21.10;96.40
37754;DHT22;23596;52.520;13.464;2022-09-01T11:49:59;21.10;96.60
37754;DHT22;23596;52.520;13.464;2022-09-01T11:52:29;21.20;96.70
37754;DHT22;23596;52.520;13.464;2022-09-01T11:54:57;21.20;96.50
37754;DHT22;23596;52.520;13.464;2022-09-01T11:57:37;21.20;96.50
37754;DHT22;23596;52.520;13.464;2022-09-01T12:00:12;21.20;96.70
37754;DHT22;23596;52.520;13.464;2022-09-01T12:02:47;21.20;96.80
37754;DHT22;23596;52.520;13.464;2022-09-01T12:05:26;21.10;96.50
37754;DHT22;23596;52.520;13.464;2022-09-01T12:07:53;21.20;96.50
37754;DHT22;23596;52.520;13.464;2022-09-01T12:10:21;21.20;96.60
37754;DHT22;23596;52.520;13.464;2022-09-01T12:12:48;21.30;96.70
37754;DHT22;23596;52.520;13.464;2022-09-01T12:15:20;21.50;97.00
37754;DHT22;23596;52.520;13.464;2022-09-01T12:17:47;21.70;96.30
37754;DHT22;23596;52.520;13.464;2022-09-01T12:20:30;21.80;96.50
37754;DHT22;23596;52.520;13.464;2022-09-01T12:23:00;21.90;97.00
37754;DHT22;23596;52.520;13.464;2022-09-01T12:25:32;21.80;97.20
37754;DHT22;23596;52.520;13.464;2022-09-01T12:28:00;21.70;97.60
37754;DHT22;23596;52.520;13.464;2022-09-01T12:30:27;21.60;97.20
37754;DHT22;23596;52.520;13.464;2022-09-01T12:32:53;21.40;96.80
37754;DHT22;23596;52.520;13.464;2022-09-01T12:35:21;21.30;97.00
37754;DHT22;23596;52.520;13.464;2022-09-01T12:37:47;21.20;97.30
37754;DHT22;23596;52.520;13.464;2022-09-01T12:40:30;21.10;97.70
37754;DHT22;23596;52.520;13.464;2022-09-01T12:42:56;21.10;98.00
37754;DHT22;23596;52.520;13.464;2022-09-01T12:45:42;21.00;98.40
37754;DHT22;23596;52.520;13.464;2022-09-01T12:48:24;21.10;98.40
37754;DHT22;23596;52.520;13.464;2022-09-01T12:50:51;21.20;98.00
37754;DHT22;23596;52.520;13.464;2022-09-01T12:53:18;21.30;98.40
37754;DHT22;23596;52.520;13.464;2022-09-01T12:55:55;21.40;98.20
37754;DHT22;23596;52.520;13.464;2022-09-01T12:58:25;21.50;97.60
37754;DHT22;23596;52.520;13.464;2022-09-01T13:01:02;21.50;97.70
37754;DHT22;23596;52.520;13.464;2022-09-01T13:03:30;21.60;97.70
37754;DHT22;23596;52.520;13.464;2022-09-01T13:05:57;21.90;98.10
37754;DHT22;23596;52.520;13.464;2022-09-01T13:08:26;22.40;97.00
37754;DHT22;23596;52.520;13.464;2022-09-01T13:11:12;22.90;96.80
37754;DHT22;23596;52.520;13.464;2022-09-01T13:13:38;23.20;96.20
37754;DHT22;23596;52.520;13.464;2022-09-01T13:16:05;23.50;95.10
37754;DHT22;23596;52.520;13.464;2022-09-01T13:18:39;23.40;93.90
37754;DHT22;23596;52.520;13.464;2022-09-01T13:21:05;23.30;93.70
37754;DHT22;23596;52.520;13.464;2022-09-01T13:23:31;23.20;93.50
37754;DHT22;23596;52.520;13.464;2022-09-01T13:25:57;22.90;93.90
37754;DHT22;23596;52.520;13.464;2022-09-01T13:28:26;23.00;93.80
37754;DHT22;23596;52.520;13.464;2022-09-01T13:30:55;22.80;94.00
37754;DHT22;23596;52.520;13.464;2022-09-01T13:33:23;22.60;94.30
37754;DHT22;23596;52.520;13.464;2022-09-01T13:35:49;22.40;94.20
37754;DHT22;23596;52.520;13.464;2022-09-01T13:38:16;22.20;94.20
37754;DHT22;23596;52.520;13.464;2022-09-01T13:40:43;22.00;94.20
37754;DHT22;23596;52.520;13.464;2022-09-01T13:43:12;21.90;94.40
37754;DHT22;23596;52.520;13.464;2022-09-01T13:45:38;21.70;94.80
37754;DHT22;23596;52.520;13.464;2022-09-01T13:48:08;21.70;94.40
37754;DHT22;23596;52.520;13.464;2022-09-01T13:50:34;21.60;94.30
37754;DHT22;23596;52.520;13.464;2022-09-01T13:53:00;21.50;94.80
37754;DHT22;23596;52.520;13.464;2022-09-01T13:55:32;21.50;94.90
37754;DHT22;23596;52.520;13.464;2022-09-01T13:57:57;21.50;95.20
37754;DHT22;23596;52.520;13.464;2022-09-01T14:00:38;21.50;95.10
37754;DHT22;23596;52.520;13.464;2022-09-01T14:03:08;21.60;95.20
37754;DHT22;23596;52.520;13.464;2022-09-01T14:05:41;21.70;95.40
37754;DHT22;23596;52.520;13.464;2022-09-01T14:08:08;21.80;95.70
37754;DHT22;23596;52.520;13.464;2022-09-01T14:10:37;21.80;95.70
37754;DHT22;23596;52.520;13.464;2022-09-01T14:13:02;22.00;95.40
37754;DHT22;23596;52.520;13.464;2022-09-01T14:15:28;21.90;95.20
37754;DHT22;23596;52.520;13.464;2022-09-01T14:17:55;21.90;95.20
37754;DHT22;23596;52.520;13.464;2022-09-01T14:20:27;22.00;95.10
37754;DHT22;23596;52.520;13.464;2022-09-01T14:22:54;22.10;94.90
37754;DHT22;23596;52.520;13.464;2022-09-01T14:25:20;22.30;94.80
37754;DHT22;23596;52.520;13.464;2022-09-01T14:27:46;22.80;94.50
37754;DHT22;23596;52.520;13.464;2022-09-01T14:30:18;23.40;93.60
37754;DHT22;23596;52.520;13.464;2022-09-01T14:32:44;24.00;92.90
37754;DHT22;23596;52.520;13.464;2022-09-01T14:35:10;24.70;92.60
37754;DHT22;23596;52.520;13.464;2022-09-01T14:37:37;25.30;91.50
37754;DHT22;23596;52.520;13.464;2022-09-01T14:40:05;25.70;91.30
37754;DHT22;23596;52.520;13.464;2022-09-01T14:42:31;25.60;90.60
37754;DHT22;23596;52.520;13.464;2022-09-01T14:44:56;25.50;90.90
37754;DHT22;23596;52.520;13.464;2022-09-01T14:47:22;26.20;90.20
37754;DHT22;23596;52.520;13.464;2022-09-01T14:49:51;26.30;90.60
37754;DHT22;23596;52.520;13.464;2022-09-01T14:52:17;27.50;88.50
37754;DHT22;23596;52.520;13.464;2022-09-01T14:54:43;28.70;85.50
37754;DHT22;23596;52.520;13.464;2022-09-01T14:57:10;29.90;82.80
37754;DHT22;23596;52.520;13.464;2022-09-01T14:59:36;30.80;79.30
37754;DHT22;23596;52.520;13.464;2022-09-01T15:02:02;31.10;76.30
37754;DHT22;23596;52.520;13.464;2022-09-01T15:04:29;31.00;74.20
37754;DHT22;23596;52.520;13.464;2022-09-01T15:06:55;30.80;72.90
37754;DHT22;23596;52.520;13.464;2022-09-01T15:09:21;31.00;72.30
37754;DHT22;23596;52.520;13.464;2022-09-01T15:11:46;31.50;70.90
37754;DHT22;23596;52.520;13.464;2022-09-01T15:14:12;32.10;69.00
37754;DHT22;23596;52.520;13.464;2022-09-01T15:16:38;32.70;68.30
37754;DHT22;23596;52.520;13.464;2022-09-01T15:19:10;33.10;67.10
37754;DHT22;23596;52.520;13.464;2022-09-01T15:21:36;33.40;65.80
37754;DHT22;23596;52.520;13.464;2022-09-01T15:24:04;33.40;64.70
37754;DHT22;23596;52.520;13.464;2022-09-01T15:26:30;33.20;64.10
37754;DHT22;23596;52.520;13.464;2022-09-01T15:28:56;33.10;64.10
37754;DHT22;23596;52.520;13.464;2022-09-01T15:31:23;33.20;63.70
37754;DHT22;23596;52.520;13.464;2022-09-01T15:33:54;33.50;63.30
37754;DHT22;23596;52.520;13.464;2022-09-01T15:36:22;33.60;62.50
37754;DHT22;23596;52.520;13.464;2022-09-01T15:38:48;33.10;62.10
37754;DHT22;23596;52.520;13.464;2022-09-01T15:41:19;32.10;62.90
37754;DHT22;23596;52.520;13.464;2022-09-01T15:43:44;31.00;64.00
37754;DHT22;23596;52.520;13.464;2022-09-01T15:46:10;29.70;64.50
37754;DHT22;23596;52.520;13.464;2022-09-01T15:48:36;28.70;66.10
37754;DHT22;23596;52.520;13.464;2022-09-01T15:53:50;28.30;66.90
37754;DHT22;23596;52.520;13.464;2022-09-01T15:56:16;28.40;66.80
37754;DHT22;23596;52.520;13.464;2022-09-01T15:58:48;28.10;66.90
37754;DHT22;23596;52.520;13.464;2022-09-01T16:01:15;27.70;67.50
37754;DHT22;23596;52.520;13.464;2022-09-01T16:03:41;27.30;68.20
37754;DHT22;23596;52.520;13.464;2022-09-01T16:06:07;27.40;68.10
37754;DHT22;23596;52.520;13.464;2022-09-01T16:08:33;27.70;67.80
37754;DHT22;23596;52.520;13.464;2022-09-01T16:10:59;28.00;67.60
37754;DHT22;23596;52.520;13.464;2022-09-01T16:13:26;28.20;67.10
37754;DHT22;23596;52.520;13.464;2022-09-01T16:19:37;28.30;66.80
37754;DHT22;23596;52.520;13.464;2022-09-01T16:21:57;28.10;66.90
37754;DHT22;23596;52.520;13.464;2022-09-01T16:24:25;27.80;67.00
37754;DHT22;23596;52.520;13.464;2022-09-01T16:26:51;27.30;68.30
37754;DHT22;23596;52.520;13.464;2022-09-01T16:29:39;26.90;71.20
37754;DHT22;23596;52.520;13.464;2022-09-01T16:32:06;26.50;69.90
37754;DHT22;23596;52.520;13.464;2022-09-01T16:34:32;26.10;70.60
37754;DHT22;23596;52.520;13.464;2022-09-01T16:39:45;25.30;71.40
37754;DHT22;23596;52.520;13.464;2022-09-01T16:45:07;24.70;72.50